Hundvaag 1 weather for Jul 2009
Month no. 265
Obs.
Da.
Temp. Dew Point Precip. Wind
Speed
Wind gusts Cloud cover Press. Humidity Wind dir. Sunny OPT
01.07.2009 23,4 16,2 0,0 0,0 0,0 10 1025,6 64,0 225,0 1 100,0 %
02.07.2009 23,7 16,7 0,0 0,0 0,0 10 1024,6 65,0 337,5 1 100,0 %
03.07.2009 24,4 17,6 0,0 0,0 0,0 10 1018,8 66,0 157,5 1 100,0 %
04.07.2009 21,6 16,1 0,0 0,0 0,0 10 1011,7 71,0 180,0 1 100,0 %
05.07.2009 19,0 14,7 0,0 4,8 6,4 3 1010,0 76,0 247,5 1 77,5 %
06.07.2009 21,1 16,7 0,0 1,9 1,9 9 1005,3 76,0 67,5 1 97,5 %
07.07.2009 14,1 13,7 22,0 0,0 1,6 3 997,9 97,0 45,0 1 57,5 %
08.07.2009 14,2 12,1 0,2 0,0 0,0 3 996,8 87,0 270,0 1 75,0 %
09.07.2009 13,8 11,6 0,0 0,0 27,4 4 997,5 86,0 292,5 1 77,5 %
10.07.2009 14,9 14,5 4,5 0,0 1,6 4 999,5 97,0 180,0 1 75,0 %
11.07.2009 13,6 12,8 0,0 0,0 4,8 2 1002,3 95,0 270,0 1 72,5 %
12.07.2009 13,6 12,2 0,0 0,0 3,2 0 1005,6 91,0 0,0 1 67,5 %
13.07.2009 14,9 13,2 4,0 2,5 9,7 0 1005,9 85,0 337,5 1 65,0 %
14.07.2009 15,3 11,8 2,7 1,1 4,8 6 1012,1 92,0 157,5 1 85,0 %
15.07.2009 17,3 13,6 0,6 3,8 4,8 4 1014,1 90,0 157,5 1 77,5 %
16.07.2009 17,3 13,5 3,5 0,8 1,6 4 1016,9 83,0 225,0 1 77,5 %
17.07.2009 18,8 13,5 0,5 1,0 3,2 10 1017,7 72,0 315,0 1 97,5 %
18.07.2009 18,3 13,2 0,4 0,0   10 1005,3 72,0   1 97,5 %
19.07.2009 15,3 14,9 56,5 0,0   0 1001,9 98,0     45,5 %
20.07.2009 14,3 12,7 0,0 1,6   10 1003,3 90,0   1 92,5 %
21.07.2009 14,6 12,1 7,0 14,0   1 1005,0 85,0     58,7 %
22.07.2009 13,1 11,7 0,0 0,0   10 1001,2 91,0   1 92,5 %
23.07.2009 16,2 15,7 7,1 3,2   1 996,5 97,0     68,6 %
24.07.2009 14,9 14,5 2,1 3,2   5 1001,6 97,0   1 79,5 %
25.07.2009 13,7 13,3 0,3 4,8   10 1006,7 97,0   1 90,0 %
26.07.2009 13,8 10,8 4,9 16,0   2 1014,8 82,0 270,0   60,2 %
27.07.2009 13,1 11,3 1,0 1,6   10 1005,6 89,0   1 92,5 %
28.07.2009 14,9 14,6 13,9 4,8   1 1007,3 98,0     56,9 %
29.07.2009 14,6 13,7 5,0 1,6   2 1012,8 94,0 112,5   70,1 %
30.07.2009 17,3 12,4 9,5 3,2   1 1005,0 73,0     65,2 %
31.07.2009 14,6 14,3 54,4 4,8   0 1003,3 98,0 180,0   40,6 %
Avrg/Sum 16,4 13,7 200,1 2,4 4,2 5,0 1007,5 85,6 201,4 23 77,8 %